Time;durP1;ratioP1;P1;durP2;ratioP2;P2;SDS_P1;SDS_P2;PMS_P1;PMS_P2;Temp;Humidity;BMP_temperature;BMP_pressure;BME280_temperature;BME280_humidity;BME280_pressure;Samples;Min_cycle;Max_cycle;Signal;HPM_P1;HPM_P2
2021/08/18 00:00:06;;;;;;;150.60;58.63;;;14.30;99.90;;;;;;5051596;28;20021;-66
2021/08/18 00:02:31;;;;;;;146.55;58.75;;;14.30;99.90;;;;;;5053204;28;20138;-67
2021/08/18 00:04:57;;;;;;;145.30;56.90;;;14.30;99.90;;;;;;5051565;28;20064;-66
2021/08/18 00:07:22;;;;;;;148.95;57.97;;;14.40;99.90;;;;;;5053402;28;20416;-66
2021/08/18 00:09:49;;;;;;;139.57;56.65;;;14.30;99.90;;;;;;5053129;28;20025;-67
2021/08/18 00:12:15;;;;;;;147.15;57.35;;;14.40;99.90;;;;;;5052019;28;20036;-66
2021/08/18 00:14:41;;;;;;;153.48;58.55;;;14.40;99.90;;;;;;5052831;28;20025;-66
2021/08/18 00:17:07;;;;;;;151.13;58.05;;;14.40;99.90;;;;;;5035242;28;20025;-66
2021/08/18 00:19:32;;;;;;;150.25;57.22;;;14.30;99.90;;;;;;5051306;28;20076;-66
2021/08/18 00:21:58;;;;;;;153.77;59.95;;;14.40;99.90;;;;;;5053059;28;20024;-66
2021/08/18 00:24:23;;;;;;;142.63;58.40;;;14.40;99.90;;;;;;5053273;28;20025;-66
2021/08/18 00:26:49;;;;;;;145.75;57.50;;;14.40;99.90;;;;;;5054405;28;20029;-67
2021/08/18 00:29:14;;;;;;;148.40;60.40;;;14.40;99.90;;;;;;5056290;28;20079;-67
2021/08/18 00:31:40;;;;;;;147.65;57.92;;;14.40;99.90;;;;;;5056263;28;20033;-66
2021/08/18 00:34:06;;;;;;;143.77;57.25;;;14.40;99.90;;;;;;5055324;28;20033;-67
2021/08/18 00:36:31;;;;;;;132.48;55.03;;;14.40;99.90;;;;;;5056217;28;20057;-66
2021/08/18 00:38:57;;;;;;;126.07;55.17;;;14.40;99.90;;;;;;5056612;28;20052;-66
2021/08/18 00:41:23;;;;;;;127.85;56.20;;;14.40;99.90;;;;;;5055199;28;20428;-66
2021/08/18 00:43:51;;;;;;;129.68;55.20;;;14.40;99.90;;;;;;5054773;28;20032;-67
2021/08/18 00:46:17;;;;;;;134.02;55.40;;;14.40;99.90;;;;;;5056273;28;20028;-67
2021/08/18 00:48:44;;;;;;;132.30;55.33;;;14.40;99.90;;;;;;5055307;28;20029;-67
2021/08/18 00:51:12;;;;;;;131.32;55.90;;;14.40;99.90;;;;;;5056176;28;20021;-66
2021/08/18 00:53:38;;;;;;;125.10;54.60;;;14.50;99.90;;;;;;5056387;28;20166;-67
2021/08/18 00:56:03;;;;;;;137.93;57.58;;;14.50;99.90;;;;;;5055153;28;20104;-66
2021/08/18 00:58:29;;;;;;;127.50;54.83;;;14.50;99.90;;;;;;5055968;28;20047;-66
2021/08/18 01:00:57;;;;;;;140.95;58.50;;;14.50;99.90;;;;;;5054828;28;20074;-67
2021/08/18 01:03:22;;;;;;;127.78;53.95;;;14.50;99.90;;;;;;5055928;28;20044;-66
2021/08/18 01:05:48;;;;;;;128.45;56.45;;;14.50;99.90;;;;;;5056192;28;20024;-66
2021/08/18 01:08:13;;;;;;;135.55;57.53;;;14.50;99.90;;;;;;5056105;28;20036;-66
2021/08/18 01:10:39;;;;;;;127.38;54.95;;;14.50;99.90;;;;;;5056075;28;20044;-66
2021/08/18 01:13:05;;;;;;;126.55;54.58;;;14.50;99.90;;;;;;5055497;28;20037;-66
2021/08/18 01:15:31;;;;;;;121.82;54.55;;;14.50;99.90;;;;;;5055753;28;20025;-66
2021/08/18 01:17:59;;;;;;;116.18;51.58;;;14.50;99.90;;;;;;5055518;28;20053;-67
2021/08/18 01:20:29;;;;;;;119.68;52.88;;;14.50;99.90;;;;;;5055594;28;20024;-66
2021/08/18 01:22:56;;;;;;;113.00;50.80;;;14.50;99.90;;;;;;5055562;28;20028;-67
2021/08/18 01:25:22;;;;;;;113.20;52.72;;;14.50;99.90;;;;;;5053985;28;20104;-66
2021/08/18 01:27:51;;;;;;;111.10;51.47;;;14.50;99.90;;;;;;5053989;28;20163;-67
2021/08/18 01:30:18;;;;;;;112.90;51.05;;;14.50;99.90;;;;;;5054595;28;20053;-66
2021/08/18 01:32:51;;;;;;;110.85;49.17;;;14.50;99.90;;;;;;5055107;28;20021;-66
2021/08/18 01:35:19;;;;;;;101.43;46.80;;;14.50;99.90;;;;;;5055657;28;20025;-66
2021/08/18 01:37:44;;;;;;;99.93;44.65;;;14.50;99.90;;;;;;5055576;28;20013;-66
2021/08/18 01:40:10;;;;;;;82.32;38.50;;;14.50;99.90;;;;;;5055525;28;20474;-66
2021/08/18 01:42:38;;;;;;;78.90;37.40;;;14.50;99.90;;;;;;5055469;28;20025;-66
2021/08/18 01:45:04;;;;;;;69.72;34.42;;;14.50;99.90;;;;;;5053989;28;20486;-66
2021/08/18 01:47:30;;;;;;;68.80;33.83;;;14.50;99.90;;;;;;5055384;28;20032;-66
2021/08/18 01:49:55;;;;;;;67.93;31.85;;;14.50;99.90;;;;;;5055326;28;20032;-66
2021/08/18 01:52:21;;;;;;;63.13;30.98;;;14.50;99.90;;;;;;5054763;28;20104;-66
2021/08/18 01:54:46;;;;;;;65.78;31.75;;;14.50;99.90;;;;;;5054987;28;20104;-66
2021/08/18 01:57:12;;;;;;;64.63;30.08;;;14.50;99.90;;;;;;5053801;28;20458;-66
2021/08/18 01:59:38;;;;;;;63.20;31.17;;;14.50;99.90;;;;;;5055103;28;20079;-66
2021/08/18 02:02:03;;;;;;;62.22;30.75;;;14.50;99.90;;;;;;5053329;28;20115;-67
2021/08/18 02:04:29;;;;;;;56.13;28.23;;;14.50;99.90;;;;;;5055084;28;20382;-67
2021/08/18 02:06:54;;;;;;;54.88;29.23;;;14.50;99.90;;;;;;5054046;28;20442;-66
2021/08/18 02:09:20;;;;;;;55.92;28.08;;;14.60;99.90;;;;;;5054709;28;20040;-66
2021/08/18 02:11:46;;;;;;;53.10;26.60;;;14.50;99.90;;;;;;5054376;28;20048;-66
2021/08/18 02:14:11;;;;;;;53.00;27.55;;;14.50;99.90;;;;;;5054622;28;20033;-66
2021/08/18 02:16:37;;;;;;;48.08;25.85;;;14.50;99.90;;;;;;5053679;28;20052;-67
2021/08/18 02:19:02;;;;;;;52.92;26.75;;;14.60;99.90;;;;;;5054117;28;20041;-66
2021/08/18 02:21:28;;;;;;;51.15;26.00;;;14.60;99.90;;;;;;5053323;28;20402;-66
2021/08/18 02:23:53;;;;;;;53.75;26.67;;;14.60;99.90;;;;;;5036363;28;20397;-67
2021/08/18 02:26:19;;;;;;;50.67;26.92;;;14.50;99.90;;;;;;5054682;28;20087;-67
2021/08/18 02:28:44;;;;;;;50.58;25.15;;;14.50;99.90;;;;;;5054643;28;20431;-66
2021/08/18 02:31:10;;;;;;;51.42;26.30;;;14.50;99.90;;;;;;5052758;28;20429;-66
2021/08/18 02:33:36;;;;;;;48.33;25.35;;;14.60;99.90;;;;;;5053298;28;20029;-66
2021/08/18 02:36:02;;;;;;;52.28;26.65;;;14.60;99.90;;;;;;5054210;28;20032;-66
2021/08/18 02:38:28;;;;;;;49.40;26.10;;;14.60;99.90;;;;;;5054362;28;20033;-66
2021/08/18 02:40:53;;;;;;;53.17;26.85;;;14.60;99.90;;;;;;5054414;28;20104;-66
2021/08/18 02:43:19;;;;;;;52.55;26.55;;;14.60;99.90;;;;;;5054113;28;20090;-66
2021/08/18 02:45:44;;;;;;;54.60;27.90;;;14.50;99.90;;;;;;5054319;28;20028;-66
2021/08/18 02:48:10;;;;;;;61.50;28.42;;;14.60;99.90;;;;;;5052428;28;20029;-66
2021/08/18 02:50:36;;;;;;;55.45;28.90;;;14.60;99.90;;;;;;5053059;28;20040;-66
2021/08/18 02:53:01;;;;;;;55.53;28.33;;;14.60;99.90;;;;;;5053083;28;20029;-66
2021/08/18 02:55:28;;;;;;;57.38;29.25;;;14.60;99.90;;;;;;5054204;28;20043;-66
2021/08/18 02:57:54;;;;;;;55.42;29.55;;;14.60;99.90;;;;;;5054053;28;20021;-66
2021/08/18 03:00:21;;;;;;;58.58;29.38;;;14.60;99.90;;;;;;5054406;28;20028;-67
2021/08/18 03:02:47;;;;;;;55.03;31.08;;;14.50;99.90;;;;;;5054079;28;20025;-67
2021/08/18 03:05:13;;;;;;;57.35;28.80;;;14.50;99.90;;;;;;5053779;28;20100;-66
2021/08/18 03:07:40;;;;;;;54.53;28.25;;;14.50;99.90;;;;;;5053736;28;20017;-66
2021/08/18 03:10:06;;;;;;;58.05;30.42;;;14.50;99.90;;;;;;5053952;28;20028;-66
2021/08/18 03:12:32;;;;;;;60.40;29.98;;;14.50;99.90;;;;;;5053962;28;20075;-67
2021/08/18 03:14:58;;;;;;;58.42;30.42;;;14.50;99.90;;;;;;5052692;28;20025;-66
2021/08/18 03:17:23;;;;;;;53.15;28.95;;;14.50;99.90;;;;;;5053643;28;20040;-66
2021/08/18 03:19:49;;;;;;;58.65;30.00;;;14.50;99.90;;;;;;5053549;28;20104;-67
2021/08/18 03:22:14;;;;;;;58.47;29.88;;;14.60;99.90;;;;;;5053836;28;20025;-66
2021/08/18 03:24:40;;;;;;;61.08;29.92;;;14.60;99.90;;;;;;5036020;28;20438;-67
2021/08/18 03:27:06;;;;;;;58.30;29.77;;;14.60;99.90;;;;;;5053783;28;20040;-67
2021/08/18 03:29:31;;;;;;;62.78;29.77;;;14.50;99.90;;;;;;5052331;28;20494;-66
2021/08/18 03:31:57;;;;;;;56.33;29.02;;;14.60;99.90;;;;;;5053510;28;20029;-67
2021/08/18 03:34:22;;;;;;;52.58;28.08;;;14.50;99.90;;;;;;5053737;28;20028;-66
2021/08/18 03:36:48;;;;;;;56.22;28.65;;;14.50;99.90;;;;;;5052562;28;20025;-66
2021/08/18 03:39:14;;;;;;;60.75;29.25;;;14.60;99.90;;;;;;5053057;28;20031;-66
2021/08/18 03:41:39;;;;;;;59.83;28.42;;;14.60;99.90;;;;;;5053678;28;20080;-66
2021/08/18 03:44:05;;;;;;;59.53;28.17;;;14.50;99.90;;;;;;5035269;28;20017;-66
2021/08/18 03:46:31;;;;;;;57.53;28.80;;;14.50;99.90;;;;;;5052365;28;20060;-66
2021/08/18 03:48:56;;;;;;;55.10;29.13;;;14.50;99.90;;;;;;5053466;28;20538;-66
2021/08/18 03:51:21;;;;;;;61.65;29.90;;;14.50;99.90;;;;;;5052422;28;20374;-66
2021/08/18 03:53:47;;;;;;;56.60;27.17;;;14.50;99.90;;;;;;5052007;28;20493;-66
2021/08/18 03:56:13;;;;;;;54.78;27.15;;;14.50;99.90;;;;;;5053371;28;20036;-67
2021/08/18 03:58:39;;;;;;;56.42;27.00;;;14.50;99.90;;;;;;5053103;28;20056;-67
2021/08/18 04:01:06;;;;;;;50.08;26.58;;;14.50;99.90;;;;;;5053218;28;20499;-66
2021/08/18 04:03:33;;;;;;;46.97;25.20;;;14.60;99.90;;;;;;5057407;28;20043;-66
2021/08/18 04:05:59;;;;;;;46.42;25.77;;;14.50;99.90;;;;;;5055888;28;20477;-66
2021/08/18 04:08:24;;;;;;;50.95;26.50;;;14.50;99.90;;;;;;5055510;28;20063;-66
2021/08/18 04:10:50;;;;;;;48.60;26.80;;;14.50;99.90;;;;;;5057276;28;20039;-66
2021/08/18 04:13:16;;;;;;;53.05;25.88;;;14.60;99.90;;;;;;5056670;28;20028;-67
2021/08/18 04:15:41;;;;;;;46.47;24.75;;;14.60;99.90;;;;;;5055753;28;20032;-67
2021/08/18 04:18:10;;;;;;;46.58;25.75;;;14.60;99.90;;;;;;5056537;28;20056;-66
2021/08/18 04:20:36;;;;;;;48.10;25.05;;;14.60;99.90;;;;;;5055253;28;20090;-67
2021/08/18 04:23:02;;;;;;;51.65;24.67;;;14.60;99.90;;;;;;5057040;28;20028;-66
2021/08/18 04:25:28;;;;;;;49.03;24.77;;;14.50;99.90;;;;;;5056456;28;20029;-66
2021/08/18 04:27:54;;;;;;;54.80;25.63;;;14.50;99.90;;;;;;5056939;28;20104;-67
2021/08/18 04:30:21;;;;;;;45.00;24.50;;;14.50;99.90;;;;;;5056604;28;20061;-66
2021/08/18 04:32:46;;;;;;;49.20;26.50;;;14.50;99.90;;;;;;5056813;28;20048;-67
2021/08/18 04:35:14;;;;;;;46.90;24.88;;;14.60;99.90;;;;;;5056749;28;20061;-67
2021/08/18 04:37:40;;;;;;;47.17;25.17;;;14.50;99.90;;;;;;5056728;28;20027;-67
2021/08/18 04:40:08;;;;;;;47.47;25.48;;;14.60;99.90;;;;;;5056607;28;20109;-67
2021/08/18 04:42:36;;;;;;;44.67;24.77;;;14.60;99.90;;;;;;5054927;28;20074;-67
2021/08/18 04:45:03;;;;;;;47.28;24.55;;;14.60;99.90;;;;;;5056630;28;20466;-67
2021/08/18 04:47:29;;;;;;;44.88;25.35;;;14.60;99.90;;;;;;5056580;28;20029;-67
2021/08/18 04:49:54;;;;;;;46.88;24.85;;;14.50;99.90;;;;;;5056522;28;20348;-66
2021/08/18 04:52:20;;;;;;;47.95;25.95;;;14.60;99.90;;;;;;5056489;28;20539;-66
2021/08/18 04:54:45;;;;;;;43.47;24.98;;;14.60;99.90;;;;;;5056379;28;20529;-66
2021/08/18 04:57:11;;;;;;;43.97;25.73;;;14.60;99.90;;;;;;5054579;28;20036;-66
2021/08/18 04:59:36;;;;;;;50.42;26.58;;;14.60;99.90;;;;;;5056240;28;20025;-66
2021/08/18 05:02:02;;;;;;;49.00;27.30;;;14.60;99.90;;;;;;5054456;28;20067;-66
2021/08/18 05:04:28;;;;;;;48.35;27.02;;;14.50;99.90;;;;;;5054898;28;20092;-66
2021/08/18 05:06:53;;;;;;;47.88;26.38;;;14.60;99.90;;;;;;5056154;28;20099;-66
2021/08/18 05:09:19;;;;;;;50.72;28.20;;;14.60;99.90;;;;;;5056161;28;20047;-66
2021/08/18 05:11:44;;;;;;;49.13;26.73;;;14.60;99.90;;;;;;5054568;28;20522;-66
2021/08/18 05:14:10;;;;;;;50.22;27.25;;;14.60;99.90;;;;;;5055514;28;20029;-66
2021/08/18 05:16:35;;;;;;;50.97;27.25;;;14.60;99.90;;;;;;5055001;28;20029;-66
2021/08/18 05:19:01;;;;;;;55.00;29.20;;;14.70;99.90;;;;;;5055314;28;20375;-66
2021/08/18 05:21:27;;;;;;;55.80;30.13;;;14.60;99.90;;;;;;5055623;28;20021;-67
2021/08/18 05:23:52;;;;;;;60.00;30.05;;;14.70;99.90;;;;;;5054679;28;20025;-66
2021/08/18 05:26:18;;;;;;;52.88;28.77;;;14.70;99.90;;;;;;5054302;28;20379;-66
2021/08/18 05:28:43;;;;;;;53.60;29.42;;;14.70;99.90;;;;;;5055690;28;20029;-66
2021/08/18 05:31:09;;;;;;;52.95;30.02;;;14.80;99.90;;;;;;5055064;28;20021;-66
2021/08/18 05:33:34;;;;;;;53.45;30.40;;;14.80;99.90;;;;;;5055322;28;20068;-67
2021/08/18 05:36:00;;;;;;;56.88;29.25;;;14.80;99.90;;;;;;5054378;28;20115;-66
2021/08/18 05:38:26;;;;;;;54.65;30.35;;;14.80;99.90;;;;;;5055221;28;20413;-66
2021/08/18 05:40:51;;;;;;;59.53;31.90;;;14.80;99.90;;;;;;5054052;28;20039;-66
2021/08/18 05:43:17;;;;;;;56.05;30.88;;;14.90;99.90;;;;;;5055194;28;20104;-66
2021/08/18 05:45:42;;;;;;;54.17;30.33;;;15.00;99.90;;;;;;5036956;28;20489;-67
2021/08/18 05:48:08;;;;;;;52.92;31.33;;;15.00;99.90;;;;;;5053601;28;20021;-66
2021/08/18 05:50:33;;;;;;;54.05;31.10;;;15.00;99.90;;;;;;5055285;28;20032;-66
2021/08/18 05:52:59;;;;;;;56.38;31.63;;;15.10;99.90;;;;;;5054687;28;20021;-65
2021/08/18 05:55:24;;;;;;;56.88;32.35;;;15.10;99.90;;;;;;5055089;28;20032;-66
2021/08/18 05:57:51;;;;;;;58.30;31.38;;;15.10;99.90;;;;;;5055378;28;20100;-67
2021/08/18 06:00:17;;;;;;;48.20;30.40;;;15.20;99.90;;;;;;5054756;28;20044;-67
2021/08/18 06:02:43;;;;;;;48.65;29.45;;;15.30;99.90;;;;;;5053107;28;20467;-67
2021/08/18 06:05:09;;;;;;;52.45;29.38;;;15.40;99.90;;;;;;5054994;28;20031;-66
2021/08/18 06:07:34;;;;;;;48.33;27.92;;;15.40;99.90;;;;;;5051657;28;20029;-66
2021/08/18 06:10:00;;;;;;;45.17;27.52;;;15.50;99.90;;;;;;5054075;28;20524;-66
2021/08/18 06:12:25;;;;;;;45.95;28.70;;;15.50;99.90;;;;;;5052497;28;20390;-67
2021/08/18 06:14:51;;;;;;;41.17;27.52;;;15.60;99.90;;;;;;5056961;28;20036;-67
2021/08/18 06:17:16;;;;;;;43.58;26.98;;;15.60;99.90;;;;;;5062691;28;20017;-67
2021/08/18 06:19:42;;;;;;;40.95;26.88;;;15.60;99.90;;;;;;5056814;28;20029;-67
2021/08/18 06:22:07;;;;;;;39.05;25.27;;;15.60;99.90;;;;;;5053442;28;20398;-67
2021/08/18 06:24:41;;;;;;;42.90;26.63;;;15.70;99.90;;;;;;5053423;28;20091;-67
2021/08/18 06:27:09;;;;;;;37.10;24.27;;;15.70;99.90;;;;;;5053134;28;20094;-67
2021/08/18 06:29:35;;;;;;;38.70;24.75;;;15.80;99.90;;;;;;5066680;28;20039;-66
2021/08/18 06:32:03;;;;;;;34.03;23.38;;;15.70;99.90;;;;;;5065194;28;20474;-67
2021/08/18 06:34:29;;;;;;;34.40;22.38;;;15.80;99.90;;;;;;5072712;28;20058;-67
2021/08/18 06:36:54;;;;;;;33.88;21.58;;;15.80;99.90;;;;;;5073935;28;20121;-66
2021/08/18 06:39:20;;;;;;;37.03;22.10;;;15.80;99.90;;;;;;5071942;28;20082;-67
2021/08/18 06:41:46;;;;;;;30.25;20.05;;;15.80;99.90;;;;;;5050563;28;20036;-66
2021/08/18 06:44:11;;;;;;;31.02;20.20;;;15.70;99.90;;;;;;5053974;28;20025;-67
2021/08/18 06:46:37;;;;;;;33.78;21.75;;;15.70;99.90;;;;;;5072645;28;20089;-66
2021/08/18 06:49:03;;;;;;;34.15;21.50;;;15.70;99.90;;;;;;5074081;28;20038;-66
2021/08/18 06:51:28;;;;;;;28.17;20.65;;;15.70;99.90;;;;;;5074170;28;20031;-67
2021/08/18 06:53:54;;;;;;;33.60;22.10;;;15.70;99.90;;;;;;5073950;28;20488;-67
2021/08/18 06:56:19;;;;;;;33.80;22.65;;;15.80;99.90;;;;;;5074275;28;20032;-67
2021/08/18 06:58:45;;;;;;;30.70;20.38;;;15.70;99.90;;;;;;5072369;28;20081;-67
2021/08/18 07:01:10;;;;;;;30.05;19.65;;;15.80;99.90;;;;;;5072872;28;20073;-66
2021/08/18 07:03:36;;;;;;;31.42;20.02;;;15.80;99.90;;;;;;5067026;28;20035;-66
2021/08/18 07:06:02;;;;;;;29.88;21.67;;;15.90;99.90;;;;;;5053501;28;20425;-67
2021/08/18 07:08:27;;;;;;;29.40;18.33;;;15.90;99.90;;;;;;5052605;28;20036;-67
2021/08/18 07:10:53;;;;;;;28.58;18.02;;;15.90;99.90;;;;;;5052158;28;20025;-67
2021/08/18 07:13:20;;;;;;;27.20;17.67;;;16.00;99.90;;;;;;5052503;28;20028;-67
2021/08/18 07:15:46;;;;;;;23.40;17.00;;;16.10;99.90;;;;;;5052306;28;20037;-67
2021/08/18 07:18:11;;;;;;;21.42;15.68;;;16.10;99.90;;;;;;5052113;28;20075;-67
2021/08/18 07:20:37;;;;;;;23.48;15.75;;;16.30;99.90;;;;;;5052510;28;20023;-67
2021/08/18 07:23:03;;;;;;;18.00;11.85;;;16.40;99.90;;;;;;5052650;28;20075;-67
2021/08/18 07:25:29;;;;;;;19.83;12.95;;;16.50;99.90;;;;;;5053403;28;20017;-67
2021/08/18 07:27:55;;;;;;;15.57;12.25;;;16.60;99.90;;;;;;5053306;28;20021;-66
2021/08/18 07:30:20;;;;;;;17.08;12.52;;;16.60;99.90;;;;;;5052624;28;20040;-67
2021/08/18 07:32:46;;;;;;;15.98;11.52;;;16.80;99.90;;;;;;5053251;28;20033;-66
2021/08/18 07:35:12;;;;;;;16.15;11.23;;;16.70;99.90;;;;;;5055392;28;20116;-67
2021/08/18 07:37:38;;;;;;;15.00;10.32;;;16.80;99.90;;;;;;5057180;28;20025;-67
2021/08/18 07:40:05;;;;;;;16.55;10.80;;;16.90;99.90;;;;;;5057376;28;20462;-66
2021/08/18 07:42:30;;;;;;;11.43;9.52;;;17.20;99.90;;;;;;5057431;28;20013;-67
2021/08/18 07:44:56;;;;;;;13.38;8.85;;;17.30;99.90;;;;;;5057332;28;20032;-67
2021/08/18 07:47:22;;;;;;;12.63;8.18;;;17.30;99.90;;;;;;5057460;28;20532;-67
2021/08/18 07:49:48;;;;;;;15.85;8.98;;;17.70;99.90;;;;;;5056957;28;20363;-66
2021/08/18 07:52:14;;;;;;;13.25;8.48;;;17.30;99.90;;;;;;5056072;28;20471;-67
2021/08/18 07:54:39;;;;;;;14.43;9.02;;;17.40;99.90;;;;;;5057025;28;20035;-67
2021/08/18 07:57:05;;;;;;;14.68;9.45;;;17.30;99.90;;;;;;5056555;28;20025;-67
2021/08/18 07:59:31;;;;;;;10.82;8.55;;;17.30;99.90;;;;;;5056255;28;20036;-67
2021/08/18 08:01:56;;;;;;;14.75;9.57;;;17.10;99.90;;;;;;5056643;28;20025;-67
2021/08/18 08:04:22;;;;;;;12.40;8.57;;;17.10;99.90;;;;;;5057065;28;20025;-68
2021/08/18 08:06:49;;;;;;;12.90;8.65;;;17.20;99.90;;;;;;5056982;28;20527;-67
2021/08/18 08:09:15;;;;;;;11.73;8.38;;;17.40;99.90;;;;;;5056589;28;20027;-67
2021/08/18 08:11:40;;;;;;;10.32;7.43;;;17.50;99.90;;;;;;5056816;28;20071;-67
2021/08/18 08:14:06;;;;;;;13.98;8.27;;;17.70;99.90;;;;;;5055808;28;20044;-67
2021/08/18 08:16:31;;;;;;;9.63;7.53;;;17.70;99.90;;;;;;5054587;28;20082;-67
2021/08/18 08:18:57;;;;;;;8.75;7.00;;;17.50;99.90;;;;;;5055883;28;20059;-67
2021/08/18 08:21:24;;;;;;;12.45;6.78;;;17.70;99.90;;;;;;5056691;28;20032;-67
2021/08/18 08:23:50;;;;;;;13.23;7.40;;;17.50;99.90;;;;;;5056074;28;20017;-67
2021/08/18 08:26:15;;;;;;;11.95;6.75;;;17.40;99.90;;;;;;5056184;28;20548;-67
2021/08/18 08:28:41;;;;;;;8.23;6.35;;;17.40;99.90;;;;;;5055970;28;20025;-66
2021/08/18 08:31:06;;;;;;;8.95;5.93;;;17.30;99.90;;;;;;5055948;28;20394;-66
2021/08/18 08:33:32;;;;;;;7.47;5.85;;;17.40;99.90;;;;;;5054804;28;20037;-67
2021/08/18 08:35:57;;;;;;;10.13;7.80;;;17.50;99.90;;;;;;5056010;28;20035;-67
2021/08/18 08:38:23;;;;;;;10.90;6.03;;;17.60;99.90;;;;;;5056192;28;20375;-67
2021/08/18 08:40:49;;;;;;;10.60;5.32;;;17.70;99.90;;;;;;5055090;28;20054;-67
2021/08/18 08:43:16;;;;;;;8.85;5.72;;;17.90;99.90;;;;;;5056000;28;20466;-67
2021/08/18 08:45:46;;;;;;;10.27;5.40;;;17.80;99.90;;;;;;5055888;28;20013;-67
2021/08/18 08:48:14;;;;;;;9.25;5.72;;;17.90;99.90;;;;;;5055928;28;20501;-67
2021/08/18 08:50:40;;;;;;;7.05;5.72;;;17.90;99.90;;;;;;5056079;28;20021;-67
2021/08/18 08:53:06;;;;;;;8.05;6.35;;;17.80;99.90;;;;;;5055047;28;20371;-67
2021/08/18 08:55:31;;;;;;;6.93;5.90;;;18.20;99.90;;;;;;5056005;28;20104;-68
2021/08/18 08:57:57;;;;;;;9.30;5.55;;;18.30;99.90;;;;;;5055967;28;20071;-67
2021/08/18 09:00:24;;;;;;;10.68;6.88;;;18.30;99.90;;;;;;5038043;28;20545;-67
2021/08/18 09:03:12;;;;;;;14.75;6.22;;;18.10;99.90;;;;;;5056189;28;20017;-67
2021/08/18 09:05:38;;;;;;;8.82;5.43;;;18.30;99.90;;;;;;5055823;28;20017;-67
2021/08/18 09:08:09;;;;;;;7.30;4.85;;;18.40;99.90;;;;;;5055496;28;20028;-67
2021/08/18 09:10:34;;;;;;;9.27;4.93;;;18.50;99.90;;;;;;5055622;28;20024;-67
2021/08/18 09:13:10;;;;;;;5.57;4.57;;;18.60;99.90;;;;;;5054945;28;20371;-67
2021/08/18 09:15:36;;;;;;;6.25;4.72;;;18.40;99.90;;;;;;5055760;28;20459;-67
2021/08/18 09:18:02;;;;;;;5.70;4.05;;;18.20;99.90;;;;;;5055302;28;20033;-68
2021/08/18 09:20:29;;;;;;;5.18;4.55;;;18.30;99.90;;;;;;5055272;28;20490;-67
2021/08/18 09:22:57;;;;;;;5.38;3.80;;;18.30;99.90;;;;;;5055388;28;20017;-67
2021/08/18 09:25:27;;;;;;;5.85;3.75;;;18.50;99.90;;;;;;5055698;28;20036;-67
2021/08/18 09:28:05;;;;;;;7.85;4.30;;;18.70;99.90;;;;;;5054576;28;20607;-67
2021/08/18 09:30:36;;;;;;;9.48;3.67;;;19.20;99.90;;;;;;5053731;28;20038;-67
2021/08/18 09:33:18;;;;;;;8.57;4.22;;;19.20;99.90;;;;;;5054479;28;20025;-67
2021/08/18 09:35:53;;;;;;;6.03;3.80;;;19.50;99.90;;;;;;5054927;28;20029;-67
2021/08/18 09:38:19;;;;;;;8.02;4.50;;;19.60;99.90;;;;;;5054503;28;20021;-67
2021/08/18 09:40:48;;;;;;;3.72;3.10;;;19.80;99.90;;;;;;5055209;28;20043;-67
2021/08/18 09:43:24;;;;;;;4.57;3.83;;;19.70;99.90;;;;;;5054542;28;20083;-68
2021/08/18 09:46:00;;;;;;;5.10;3.72;;;19.40;99.90;;;;;;5055213;28;20025;-67
2021/08/18 09:48:27;;;;;;;3.97;3.30;;;19.40;99.90;;;;;;5055081;28;20020;-67
2021/08/18 09:53:39;;;;;;;7.68;3.53;;;19.40;99.90;;;;;;5091494;28;20503;-67
2021/08/18 09:56:07;;;;;;;6.60;3.95;;;19.50;99.90;;;;;;5090610;28;20029;-68
2021/08/18 09:58:37;;;;;;;3.65;3.33;;;19.10;99.90;;;;;;5089498;28;20027;-68
2021/08/18 10:01:14;;;;;;;5.93;3.88;;;19.30;99.90;;;;;;5089453;28;20020;-68
2021/08/18 10:03:41;;;;;;;5.60;3.80;;;19.10;99.90;;;;;;5090824;28;20377;-68
2021/08/18 10:06:09;;;;;;;4.95;3.33;;;19.20;99.90;;;;;;5090888;28;20028;-68
2021/08/18 10:08:36;;;;;;;4.82;3.38;;;19.20;99.90;;;;;;5090593;28;20031;-68
2021/08/18 10:11:03;;;;;;;3.80;3.40;;;19.50;99.90;;;;;;5090878;28;20021;-68
2021/08/18 10:13:29;;;;;;;5.00;3.60;;;19.80;99.90;;;;;;5090630;28;20032;-69
2021/08/18 10:15:55;;;;;;;4.63;3.67;;;20.70;99.90;;;;;;5089355;28;20025;-68
2021/08/18 10:18:40;;;;;;;6.10;3.85;;;21.00;99.90;;;;;;5089376;28;20016;-67
2021/08/18 10:21:10;;;;;;;3.55;3.20;;;21.10;99.90;;;;;;5090825;28;20023;-68
2021/08/18 10:23:57;;;;;;;4.47;3.08;;;21.40;99.90;;;;;;5090496;28;20093;-68
2021/08/18 10:32:02;;;;;;;3.70;3.40;;;21.40;99.90;;;;;;5111564;27;20372;-68
2021/08/18 10:34:50;;;;;;;7.13;3.67;;;21.40;99.90;;;;;;5111793;28;20034;-68
2021/08/18 10:37:20;;;;;;;4.97;3.55;;;21.40;99.90;;;;;;5110935;28;20016;-68
2021/08/18 10:39:52;;;;;;;9.43;3.47;;;21.30;99.90;;;;;;5110775;28;20023;-67
2021/08/18 10:42:37;;;;;;;4.78;3.53;;;21.50;99.90;;;;;;5109186;28;20081;-68
2021/08/18 10:45:23;;;;;;;5.03;3.53;;;21.30;99.90;;;;;;5110139;28;20056;-68
2021/08/18 10:47:50;;;;;;;7.90;3.53;;;20.90;99.90;;;;;;5106192;28;20052;-67
2021/08/18 10:50:24;;;;;;;7.25;4.07;;;21.30;99.90;;;;;;5098621;28;20016;-67
2021/08/18 10:52:51;;;;;;;4.60;3.67;;;21.30;99.90;;;;;;5110677;28;20423;-67
2021/08/18 10:55:25;;;;;;;4.80;3.40;;;21.60;99.90;;;;;;5109824;28;20024;-68
2021/08/18 10:57:56;;;;;;;7.65;3.90;;;21.70;99.90;;;;;;5110235;28;20031;-68
2021/08/18 11:00:31;;;;;;;4.78;3.80;;;21.50;99.90;;;;;;5109273;28;20380;-68
2021/08/18 11:03:01;;;;;;;6.53;4.00;;;21.60;99.90;;;;;;5110725;28;20020;-68
2021/08/18 11:08:21;;;;;;;4.57;3.85;;;21.70;99.90;;;;;;5111947;27;20355;-68
2021/08/18 11:13:52;;;;;;;4.97;4.13;;;21.50;99.90;;;;;;5111927;27;20893;-68
2021/08/18 11:19:09;;;;;;;5.60;4.38;;;21.70;99.90;;;;;;5111456;27;20101;-68
2021/08/18 11:21:38;;;;;;;4.20;3.80;;;21.80;99.90;;;;;;5110132;28;20032;-68
2021/08/18 11:24:07;;;;;;;4.55;3.42;;;22.60;99.90;;;;;;5110372;28;20024;-68
2021/08/18 11:26:38;;;;;;;5.57;4.00;;;22.60;99.90;;;;;;5110044;28;20012;-68
2021/08/18 11:29:09;;;;;;;5.25;3.60;;;22.60;99.90;;;;;;5111010;28;20055;-68
2021/08/18 11:31:40;;;;;;;4.60;4.20;;;22.40;99.90;;;;;;5110664;28;20020;-69
2021/08/18 11:34:18;;;;;;;5.60;3.95;;;22.10;99.90;;;;;;5111022;28;20016;-69
2021/08/18 11:36:44;;;;;;;8.43;4.15;;;21.90;99.90;;;;;;5111218;28;20068;-68
2021/08/18 11:39:11;;;;;;;6.13;4.40;;;22.30;99.90;;;;;;5109541;28;20024;-67
2021/08/18 11:41:40;;;;;;;5.80;3.35;;;22.20;99.90;;;;;;5110912;28;20192;-67
2021/08/18 11:44:07;;;;;;;4.57;4.10;;;22.60;99.90;;;;;;5109971;28;20015;-67
2021/08/18 11:46:33;;;;;;;5.28;4.82;;;22.30;99.90;;;;;;5110224;28;20030;-67
2021/08/18 11:49:04;;;;;;;6.38;4.90;;;22.10;99.90;;;;;;5110852;28;20020;-67
2021/08/18 11:51:30;;;;;;;5.50;4.85;;;21.90;99.90;;;;;;5110814;28;20020;-67
2021/08/18 11:53:55;;;;;;;6.95;5.10;;;21.90;99.90;;;;;;5110517;28;20110;-67
2021/08/18 11:56:26;;;;;;;5.03;3.90;;;21.60;99.90;;;;;;5110477;28;20106;-68
2021/08/18 11:59:01;;;;;;;6.07;4.10;;;21.90;99.90;;;;;;5110639;28;20019;-67
2021/08/18 12:01:27;;;;;;;5.32;4.82;;;22.10;99.90;;;;;;5110208;28;20189;-68
2021/08/18 12:03:53;;;;;;;5.80;4.13;;;21.60;99.90;;;;;;5110401;28;20090;-68
2021/08/18 12:06:30;;;;;;;7.25;3.85;;;21.50;99.90;;;;;;5110503;28;20055;-67
2021/08/18 12:08:55;;;;;;;5.97;5.30;;;21.80;99.90;;;;;;5109970;28;20031;-67
2021/08/18 12:11:32;;;;;;;7.32;5.07;;;21.30;99.90;;;;;;5092052;28;20028;-67
2021/08/18 12:14:12;;;;;;;7.82;5.03;;;21.30;99.90;;;;;;5110608;28;20031;-68
2021/08/18 12:16:38;;;;;;;8.15;5.32;;;21.10;99.90;;;;;;5110186;28;20032;-68
2021/08/18 12:19:25;;;;;;;6.65;5.80;;;21.10;99.90;;;;;;5110148;28;20574;-67
2021/08/18 12:22:13;;;;;;;7.13;6.10;;;21.20;99.90;;;;;;5109984;28;20023;-68
2021/08/18 12:24:41;;;;;;;7.90;6.40;;;21.40;99.90;;;;;;5110422;28;20016;-68
2021/08/18 12:27:09;;;;;;;8.00;6.97;;;21.20;99.90;;;;;;5108981;28;20038;-67
2021/08/18 12:29:37;;;;;;;9.38;6.88;;;21.30;99.90;;;;;;5101085;28;20431;-67
2021/08/18 12:32:06;;;;;;;9.50;8.52;;;21.10;99.90;;;;;;5096423;28;20024;-67
2021/08/18 12:34:42;;;;;;;11.80;10.70;;;21.00;99.90;;;;;;5096026;28;20512;-71
2021/08/18 12:37:13;;;;;;;13.30;10.07;;;20.90;99.90;;;;;;5090226;28;20062;-71
2021/08/18 12:39:46;;;;;;;12.10;9.25;;;20.70;99.90;;;;;;5091916;28;20069;-71
2021/08/18 12:42:38;;;;;;;13.93;10.27;;;20.80;99.90;;;;;;5096118;28;20400;-72
2021/08/18 12:45:14;;;;;;;12.30;10.95;;;20.80;99.90;;;;;;5096221;28;20022;-71
2021/08/18 12:47:43;;;;;;;12.60;11.00;;;20.80;99.90;;;;;;5094309;28;20031;-71
2021/08/18 12:50:12;;;;;;;13.35;11.27;;;20.80;99.90;;;;;;5093548;28;20502;-72